sensor_id;sensor_type;location;lat;lon;timestamp;pressure;altitude;pressure_sealevel;temperature;humidity
49529;BME280;35423;37.320;-121.762;2023-09-07T00:00:45;99617.54;;;47.85;7.31
49529;BME280;35423;37.320;-121.762;2023-09-07T00:03:17;99621.39;;;48.01;7.48
49529;BME280;35423;37.320;-121.762;2023-09-07T00:05:46;99616.92;;;47.81;7.72
49529;BME280;35423;37.320;-121.762;2023-09-07T00:08:16;99624.77;;;46.99;7.89
49529;BME280;35423;37.320;-121.762;2023-09-07T00:10:44;99625.13;;;46.73;7.89
49529;BME280;35423;37.320;-121.762;2023-09-07T00:13:16;99622.86;;;46.44;7.94
49529;BME280;35423;37.320;-121.762;2023-09-07T00:15:43;99624.35;;;46.65;8.13
49529;BME280;35423;37.320;-121.762;2023-09-07T00:18:09;99624.97;;;46.25;8.35
49529;BME280;35423;37.320;-121.762;2023-09-07T00:20:38;99625.64;;;46.06;8.46
49529;BME280;35423;37.320;-121.762;2023-09-07T00:23:03;99624.00;;;45.61;8.62
49529;BME280;35423;37.320;-121.762;2023-09-07T00:25:32;99624.48;;;45.45;8.80
49529;BME280;35423;37.320;-121.762;2023-09-07T00:27:59;99621.39;;;45.43;8.95
49529;BME280;35423;37.320;-121.762;2023-09-07T00:30:27;99622.66;;;45.11;9.10
49529;BME280;35423;37.320;-121.762;2023-09-07T00:32:57;99622.39;;;44.97;9.31
49529;BME280;35423;37.320;-121.762;2023-09-07T00:35:26;99626.18;;;44.47;9.53
49529;BME280;35423;37.320;-121.762;2023-09-07T00:37:52;99626.87;;;44.55;9.67
49529;BME280;35423;37.320;-121.762;2023-09-07T00:40:26;99622.08;;;44.35;9.81
49529;BME280;35423;37.320;-121.762;2023-09-07T00:43:04;99628.75;;;44.72;9.95
49529;BME280;35423;37.320;-121.762;2023-09-07T00:45:30;99629.91;;;44.30;9.99
49529;BME280;35423;37.320;-121.762;2023-09-07T00:47:58;99631.64;;;44.36;10.14
49529;BME280;35423;37.320;-121.762;2023-09-07T00:50:24;99630.62;;;43.62;10.33
49529;BME280;35423;37.320;-121.762;2023-09-07T00:52:57;99633.81;;;43.71;10.45
49529;BME280;35423;37.320;-121.762;2023-09-07T00:55:27;99637.44;;;43.55;10.49
49529;BME280;35423;37.320;-121.762;2023-09-07T00:58:05;99632.80;;;43.71;10.61
49529;BME280;35423;37.320;-121.762;2023-09-07T01:00:33;99632.78;;;43.41;10.76
49529;BME280;35423;37.320;-121.762;2023-09-07T01:03:01;99635.03;;;42.97;10.91
49529;BME280;35423;37.320;-121.762;2023-09-07T01:05:41;99635.08;;;42.76;11.03
49529;BME280;35423;37.320;-121.762;2023-09-07T01:08:06;99635.34;;;42.67;11.17
49529;BME280;35423;37.320;-121.762;2023-09-07T01:10:28;99638.12;;;42.15;11.31
49529;BME280;35423;37.320;-121.762;2023-09-07T01:12:55;99637.61;;;42.19;11.42
49529;BME280;35423;37.320;-121.762;2023-09-07T01:15:20;99645.69;;;41.86;11.51
49529;BME280;35423;37.320;-121.762;2023-09-07T01:17:49;99645.40;;;42.22;11.58
49529;BME280;35423;37.320;-121.762;2023-09-07T01:20:20;99645.52;;;42.09;11.63
49529;BME280;35423;37.320;-121.762;2023-09-07T01:22:45;99645.58;;;41.89;11.73
49529;BME280;35423;37.320;-121.762;2023-09-07T01:25:11;99645.69;;;41.70;11.84
49529;BME280;35423;37.320;-121.762;2023-09-07T01:27:36;99647.50;;;41.57;11.92
49529;BME280;35423;37.320;-121.762;2023-09-07T01:30:01;99648.99;;;41.49;11.99
49529;BME280;35423;37.320;-121.762;2023-09-07T01:32:27;99648.43;;;41.22;12.11
49529;BME280;35423;37.320;-121.762;2023-09-07T01:34:54;99650.78;;;41.25;12.17
49529;BME280;35423;37.320;-121.762;2023-09-07T01:37:21;99653.37;;;40.54;12.31
49529;BME280;35423;37.320;-121.762;2023-09-07T01:39:48;99655.16;;;41.13;12.36
49529;BME280;35423;37.320;-121.762;2023-09-07T01:42:16;99656.98;;;40.94;12.45
49529;BME280;35423;37.320;-121.762;2023-09-07T01:44:41;99658.02;;;40.73;12.54
49529;BME280;35423;37.320;-121.762;2023-09-07T01:47:07;99655.44;;;40.55;12.65
49529;BME280;35423;37.320;-121.762;2023-09-07T01:49:34;99656.15;;;40.42;12.69
49529;BME280;35423;37.320;-121.762;2023-09-07T01:51:59;99653.39;;;40.22;12.80
49529;BME280;35423;37.320;-121.762;2023-09-07T01:54:26;99649.94;;;39.86;12.87
49529;BME280;35423;37.320;-121.762;2023-09-07T01:56:53;99652.86;;;40.26;13.00
49529;BME280;35423;37.320;-121.762;2023-09-07T01:59:29;99650.58;;;40.03;13.14
49529;BME280;35423;37.320;-121.762;2023-09-07T02:01:54;99650.83;;;38.84;13.30
49529;BME280;35423;37.320;-121.762;2023-09-07T02:04:20;99654.79;;;39.07;13.32
49529;BME280;35423;37.320;-121.762;2023-09-07T02:06:48;99654.15;;;38.59;13.42
49529;BME280;35423;37.320;-121.762;2023-09-07T02:09:22;99654.96;;;39.42;13.50
49529;BME280;35423;37.320;-121.762;2023-09-07T02:11:50;99656.38;;;38.35;13.70
49529;BME280;35423;37.320;-121.762;2023-09-07T02:14:16;99659.60;;;38.48;13.75
49529;BME280;35423;37.320;-121.762;2023-09-07T02:16:43;99657.83;;;38.16;13.98
49529;BME280;35423;37.320;-121.762;2023-09-07T02:19:15;99657.04;;;38.89;14.05
49529;BME280;35423;37.320;-121.762;2023-09-07T02:21:45;99657.07;;;38.11;14.23
49529;BME280;35423;37.320;-121.762;2023-09-07T02:24:13;99660.11;;;38.29;14.28
49529;BME280;35423;37.320;-121.762;2023-09-07T02:26:40;99659.09;;;38.23;14.46
49529;BME280;35423;37.320;-121.762;2023-09-07T02:29:07;99661.36;;;37.99;14.60
49529;BME280;35423;37.320;-121.762;2023-09-07T02:31:32;99662.66;;;37.70;14.75
49529;BME280;35423;37.320;-121.762;2023-09-07T02:33:57;99663.59;;;37.57;14.83
49529;BME280;35423;37.320;-121.762;2023-09-07T02:36:23;99665.36;;;37.39;14.89
49529;BME280;35423;37.320;-121.762;2023-09-07T02:38:57;99667.28;;;37.41;15.04
49529;BME280;35423;37.320;-121.762;2023-09-07T02:41:26;99671.99;;;37.01;15.11
49529;BME280;35423;37.320;-121.762;2023-09-07T02:43:53;99676.81;;;37.53;15.09
49529;BME280;35423;37.320;-121.762;2023-09-07T02:46:30;99677.85;;;37.04;15.24
49529;BME280;35423;37.320;-121.762;2023-09-07T02:49:00;99681.53;;;37.14;15.33
49529;BME280;35423;37.320;-121.762;2023-09-07T02:51:35;99686.00;;;36.68;15.45
49529;BME280;35423;37.320;-121.762;2023-09-07T02:54:01;99692.89;;;36.65;15.45
49529;BME280;35423;37.320;-121.762;2023-09-07T02:56:31;99696.88;;;36.33;15.57
49529;BME280;35423;37.320;-121.762;2023-09-07T02:58:57;99700.99;;;36.46;15.48
49529;BME280;35423;37.320;-121.762;2023-09-07T03:01:24;99707.05;;;36.53;15.46
49529;BME280;35423;37.320;-121.762;2023-09-07T03:03:49;99709.55;;;36.98;15.48
49529;BME280;35423;37.320;-121.762;2023-09-07T03:06:18;99709.81;;;36.69;15.62
49529;BME280;35423;37.320;-121.762;2023-09-07T03:08:43;99711.02;;;36.41;15.76
49529;BME280;35423;37.320;-121.762;2023-09-07T03:11:09;99715.57;;;36.38;15.92
49529;BME280;35423;37.320;-121.762;2023-09-07T03:13:42;99721.93;;;36.11;15.99
49529;BME280;35423;37.320;-121.762;2023-09-07T03:16:11;99723.08;;;36.11;16.06
49529;BME280;35423;37.320;-121.762;2023-09-07T03:18:39;99723.80;;;36.19;16.17
49529;BME280;35423;37.320;-121.762;2023-09-07T03:21:06;99729.00;;;35.91;16.36
49529;BME280;35423;37.320;-121.762;2023-09-07T03:23:38;99733.25;;;35.89;16.35
49529;BME280;35423;37.320;-121.762;2023-09-07T03:26:08;99739.71;;;35.41;16.49
49529;BME280;35423;37.320;-121.762;2023-09-07T03:28:35;99743.09;;;35.22;16.59
49529;BME280;35423;37.320;-121.762;2023-09-07T03:31:03;99747.70;;;35.40;16.64
49529;BME280;35423;37.320;-121.762;2023-09-07T03:33:36;99748.00;;;35.32;16.68
49529;BME280;35423;37.320;-121.762;2023-09-07T03:36:00;99752.12;;;35.68;16.74
49529;BME280;35423;37.320;-121.762;2023-09-07T03:38:33;99755.76;;;35.05;16.81
49529;BME280;35423;37.320;-121.762;2023-09-07T03:40:59;99758.49;;;35.04;16.93
49529;BME280;35423;37.320;-121.762;2023-09-07T03:43:25;99759.49;;;34.70;16.97
49529;BME280;35423;37.320;-121.762;2023-09-07T03:45:57;99761.54;;;34.94;17.09
49529;BME280;35423;37.320;-121.762;2023-09-07T03:48:27;99763.65;;;34.34;17.18
49529;BME280;35423;37.320;-121.762;2023-09-07T03:50:52;99764.37;;;34.33;17.34
49529;BME280;35423;37.320;-121.762;2023-09-07T03:53:26;99765.58;;;34.49;17.41
49529;BME280;35423;37.320;-121.762;2023-09-07T03:55:51;99768.99;;;34.10;17.51
49529;BME280;35423;37.320;-121.762;2023-09-07T03:58:18;99773.60;;;34.14;17.63
49529;BME280;35423;37.320;-121.762;2023-09-07T04:00:46;99775.55;;;33.99;17.73
49529;BME280;35423;37.320;-121.762;2023-09-07T04:03:16;99780.61;;;34.25;17.75
49529;BME280;35423;37.320;-121.762;2023-09-07T04:05:46;99783.90;;;33.85;17.83
49529;BME280;35423;37.320;-121.762;2023-09-07T04:08:13;99788.90;;;33.83;17.85
49529;BME280;35423;37.320;-121.762;2023-09-07T04:10:45;99788.43;;;33.93;17.95
49529;BME280;35423;37.320;-121.762;2023-09-07T04:13:12;99791.72;;;34.05;18.02
49529;BME280;35423;37.320;-121.762;2023-09-07T04:15:45;99795.29;;;33.91;18.13
49529;BME280;35423;37.320;-121.762;2023-09-07T04:18:09;99798.81;;;33.72;18.26
49529;BME280;35423;37.320;-121.762;2023-09-07T04:20:34;99802.86;;;33.58;18.34
49529;BME280;35423;37.320;-121.762;2023-09-07T04:23:01;99801.31;;;33.55;18.37
49529;BME280;35423;37.320;-121.762;2023-09-07T04:25:34;99803.93;;;33.39;18.47
49529;BME280;35423;37.320;-121.762;2023-09-07T04:27:59;99806.88;;;33.29;18.55
49529;BME280;35423;37.320;-121.762;2023-09-07T04:30:28;99809.58;;;33.15;18.63
49529;BME280;35423;37.320;-121.762;2023-09-07T04:32:56;99813.77;;;33.04;18.73
49529;BME280;35423;37.320;-121.762;2023-09-07T04:35:27;99812.76;;;32.94;18.81
49529;BME280;35423;37.320;-121.762;2023-09-07T04:37:49;99812.66;;;32.83;18.88
49529;BME280;35423;37.320;-121.762;2023-09-07T04:40:17;99813.97;;;32.77;18.93
49529;BME280;35423;37.320;-121.762;2023-09-07T04:42:43;99815.43;;;32.71;19.00
49529;BME280;35423;37.320;-121.762;2023-09-07T04:45:09;99819.97;;;32.59;19.07
49529;BME280;35423;37.320;-121.762;2023-09-07T04:47:36;99818.58;;;32.56;19.12
49529;BME280;35423;37.320;-121.762;2023-09-07T04:50:06;99817.62;;;33.03;19.12
49529;BME280;35423;37.320;-121.762;2023-09-07T04:52:31;99820.57;;;32.44;19.18
49529;BME280;35423;37.320;-121.762;2023-09-07T04:55:14;99822.30;;;32.84;19.27
49529;BME280;35423;37.320;-121.762;2023-09-07T04:57:45;99820.35;;;32.49;19.28
49529;BME280;35423;37.320;-121.762;2023-09-07T05:00:19;99820.94;;;32.38;19.37
49529;BME280;35423;37.320;-121.762;2023-09-07T05:02:44;99818.48;;;32.53;19.45
49529;BME280;35423;37.320;-121.762;2023-09-07T05:05:17;99819.79;;;32.20;19.48
49529;BME280;35423;37.320;-121.762;2023-09-07T05:07:52;99817.36;;;32.60;19.57
49529;BME280;35423;37.320;-121.762;2023-09-07T05:10:23;99813.33;;;31.99;19.65
49529;BME280;35423;37.320;-121.762;2023-09-07T05:12:50;99815.43;;;32.18;19.77
49529;BME280;35423;37.320;-121.762;2023-09-07T05:15:19;99814.27;;;31.84;19.83
49529;BME280;35423;37.320;-121.762;2023-09-07T05:17:47;99817.28;;;32.04;19.86
49529;BME280;35423;37.320;-121.762;2023-09-07T05:20:21;99819.15;;;31.46;19.92
49529;BME280;35423;37.320;-121.762;2023-09-07T05:22:46;99816.78;;;32.10;19.99
49529;BME280;35423;37.320;-121.762;2023-09-07T05:25:17;99818.95;;;31.37;19.99
49529;BME280;35423;37.320;-121.762;2023-09-07T05:27:42;99818.67;;;32.32;19.48
49529;BME280;35423;37.320;-121.762;2023-09-07T05:30:11;99818.85;;;32.38;19.59
49529;BME280;35423;37.320;-121.762;2023-09-07T05:32:45;99819.60;;;32.05;19.80
49529;BME280;35423;37.320;-121.762;2023-09-07T05:35:11;99816.11;;;32.09;19.93
49529;BME280;35423;37.320;-121.762;2023-09-07T05:37:36;99815.96;;;31.85;20.13
49529;BME280;35423;37.320;-121.762;2023-09-07T05:40:07;99817.29;;;31.67;20.23
49529;BME280;35423;37.320;-121.762;2023-09-07T05:42:38;99814.08;;;31.52;20.33
49529;BME280;35423;37.320;-121.762;2023-09-07T05:45:08;99812.31;;;31.46;20.31
49529;BME280;35423;37.320;-121.762;2023-09-07T05:47:36;99811.62;;;31.56;20.38
49529;BME280;35423;37.320;-121.762;2023-09-07T05:50:01;99810.07;;;31.18;20.45
49529;BME280;35423;37.320;-121.762;2023-09-07T05:52:26;99809.85;;;31.33;20.47
49529;BME280;35423;37.320;-121.762;2023-09-07T05:55:08;99807.19;;;31.24;20.51
49529;BME280;35423;37.320;-121.762;2023-09-07T05:57:33;99806.82;;;30.67;20.58
49529;BME280;35423;37.320;-121.762;2023-09-07T05:59:58;99806.49;;;30.75;20.53
49529;BME280;35423;37.320;-121.762;2023-09-07T06:02:26;99807.38;;;31.01;20.51
49529;BME280;35423;37.320;-121.762;2023-09-07T06:04:54;99806.26;;;30.84;20.62
49529;BME280;35423;37.320;-121.762;2023-09-07T06:07:22;99805.89;;;30.49;20.73
49529;BME280;35423;37.320;-121.762;2023-09-07T06:09:48;99799.60;;;31.29;20.85
49529;BME280;35423;37.320;-121.762;2023-09-07T06:12:16;99797.59;;;30.19;21.03
49529;BME280;35423;37.320;-121.762;2023-09-07T06:14:42;99796.74;;;30.71;21.02
49529;BME280;35423;37.320;-121.762;2023-09-07T06:17:16;99799.39;;;30.28;21.21
49529;BME280;35423;37.320;-121.762;2023-09-07T06:19:42;99796.26;;;30.71;21.24
49529;BME280;35423;37.320;-121.762;2023-09-07T06:22:14;99795.62;;;30.05;21.38
49529;BME280;35423;37.320;-121.762;2023-09-07T06:27:05;99794.79;;;30.18;21.49
49529;BME280;35423;37.320;-121.762;2023-09-07T06:29:32;99792.45;;;30.56;21.53
49529;BME280;35423;37.320;-121.762;2023-09-07T06:31:59;99791.36;;;29.95;21.62
49529;BME280;35423;37.320;-121.762;2023-09-07T06:34:24;99788.73;;;30.07;21.63
49529;BME280;35423;37.320;-121.762;2023-09-07T06:36:50;99790.56;;;29.23;21.76
49529;BME280;35423;37.320;-121.762;2023-09-07T06:39:18;99792.87;;;29.70;21.73
49529;BME280;35423;37.320;-121.762;2023-09-07T06:42:03;99791.00;;;29.98;21.89
49529;BME280;35423;37.320;-121.762;2023-09-07T06:44:30;99790.64;;;29.83;21.94
49529;BME280;35423;37.320;-121.762;2023-09-07T06:46:56;99790.54;;;29.02;22.01
49529;BME280;35423;37.320;-121.762;2023-09-07T06:49:21;99789.58;;;29.44;22.08
49529;BME280;35423;37.320;-121.762;2023-09-07T06:51:47;99790.44;;;28.81;22.04
49529;BME280;35423;37.320;-121.762;2023-09-07T06:54:20;99788.40;;;29.09;21.94
49529;BME280;35423;37.320;-121.762;2023-09-07T06:56:48;99789.09;;;28.97;22.00
49529;BME280;35423;37.320;-121.762;2023-09-07T06:59:16;99791.76;;;29.23;22.00
49529;BME280;35423;37.320;-121.762;2023-09-07T07:01:45;99795.00;;;28.93;22.04
49529;BME280;35423;37.320;-121.762;2023-09-07T07:04:20;99799.11;;;28.89;22.08
49529;BME280;35423;37.320;-121.762;2023-09-07T07:06:50;99800.78;;;28.75;22.22
49529;BME280;35423;37.320;-121.762;2023-09-07T07:09:21;99799.50;;;29.08;22.33
49529;BME280;35423;37.320;-121.762;2023-09-07T07:11:48;99798.55;;;28.51;22.42
49529;BME280;35423;37.320;-121.762;2023-09-07T07:14:16;99798.62;;;29.37;22.51
49529;BME280;35423;37.320;-121.762;2023-09-07T07:16:42;99797.33;;;28.77;22.63
49529;BME280;35423;37.320;-121.762;2023-09-07T07:19:09;99798.28;;;29.02;22.63
49529;BME280;35423;37.320;-121.762;2023-09-07T07:21:35;99797.54;;;29.15;22.71
49529;BME280;35423;37.320;-121.762;2023-09-07T07:24:01;99796.92;;;29.09;22.73
49529;BME280;35423;37.320;-121.762;2023-09-07T07:26:29;99795.29;;;29.00;22.77
49529;BME280;35423;37.320;-121.762;2023-09-07T07:28:54;99794.47;;;28.97;22.79
49529;BME280;35423;37.320;-121.762;2023-09-07T07:31:20;99790.00;;;28.87;22.85
49529;BME280;35423;37.320;-121.762;2023-09-07T07:33:46;99792.21;;;28.91;22.83
49529;BME280;35423;37.320;-121.762;2023-09-07T07:36:12;99791.08;;;28.79;22.93
49529;BME280;35423;37.320;-121.762;2023-09-07T07:38:39;99793.47;;;28.83;22.91
49529;BME280;35423;37.320;-121.762;2023-09-07T07:41:06;99795.67;;;28.68;23.05
49529;BME280;35423;37.320;-121.762;2023-09-07T07:43:32;99798.40;;;28.64;23.10
49529;BME280;35423;37.320;-121.762;2023-09-07T07:45:59;99797.26;;;28.49;23.19
49529;BME280;35423;37.320;-121.762;2023-09-07T07:48:38;99796.22;;;28.89;23.25
49529;BME280;35423;37.320;-121.762;2023-09-07T07:51:09;99798.33;;;28.24;23.36
49529;BME280;35423;37.320;-121.762;2023-09-07T07:53:50;99800.58;;;28.23;23.34
49529;BME280;35423;37.320;-121.762;2023-09-07T07:56:19;99802.32;;;28.13;23.41
49529;BME280;35423;37.320;-121.762;2023-09-07T07:58:45;99805.74;;;28.01;23.62
49529;BME280;35423;37.320;-121.762;2023-09-07T08:01:17;99804.35;;;28.37;23.67
49529;BME280;35423;37.320;-121.762;2023-09-07T08:03:40;99803.64;;;27.83;23.72
49529;BME280;35423;37.320;-121.762;2023-09-07T08:06:11;99800.46;;;28.22;23.77
49529;BME280;35423;37.320;-121.762;2023-09-07T08:08:41;99799.66;;;28.11;23.87
49529;BME280;35423;37.320;-121.762;2023-09-07T08:11:06;99801.81;;;28.02;23.93
49529;BME280;35423;37.320;-121.762;2023-09-07T08:13:50;99801.80;;;28.00;23.96
49529;BME280;35423;37.320;-121.762;2023-09-07T08:16:20;99800.81;;;27.90;24.04
49529;BME280;35423;37.320;-121.762;2023-09-07T08:18:45;99802.62;;;27.78;24.16
49529;BME280;35423;37.320;-121.762;2023-09-07T08:21:14;99804.89;;;27.70;24.29
49529;BME280;35423;37.320;-121.762;2023-09-07T08:23:51;99801.24;;;27.69;24.33
49529;BME280;35423;37.320;-121.762;2023-09-07T08:26:21;99800.64;;;27.11;24.40
49529;BME280;35423;37.320;-121.762;2023-09-07T08:28:53;99799.35;;;27.53;24.53
49529;BME280;35423;37.320;-121.762;2023-09-07T08:31:18;99801.79;;;26.92;24.60
49529;BME280;35423;37.320;-121.762;2023-09-07T08:33:44;99804.34;;;27.33;24.41
49529;BME280;35423;37.320;-121.762;2023-09-07T08:36:11;99805.79;;;27.48;24.48
49529;BME280;35423;37.320;-121.762;2023-09-07T08:38:50;99801.37;;;27.56;24.60
49529;BME280;35423;37.320;-121.762;2023-09-07T08:41:25;99800.74;;;27.16;24.73
49529;BME280;35423;37.320;-121.762;2023-09-07T08:43:49;99803.18;;;27.11;24.81
49529;BME280;35423;37.320;-121.762;2023-09-07T08:46:18;99799.45;;;27.18;24.91
49529;BME280;35423;37.320;-121.762;2023-09-07T08:48:48;99802.62;;;27.39;24.89
49529;BME280;35423;37.320;-121.762;2023-09-07T08:51:24;99801.27;;;27.26;24.99
49529;BME280;35423;37.320;-121.762;2023-09-07T08:53:49;99799.81;;;27.00;24.99
49529;BME280;35423;37.320;-121.762;2023-09-07T08:56:32;99797.65;;;26.67;25.05
49529;BME280;35423;37.320;-121.762;2023-09-07T08:58:49;99797.68;;;27.07;25.10
49529;BME280;35423;37.320;-121.762;2023-09-07T09:01:19;99792.95;;;26.70;25.13
49529;BME280;35423;37.320;-121.762;2023-09-07T09:03:59;99791.00;;;26.73;25.10
49529;BME280;35423;37.320;-121.762;2023-09-07T09:06:25;99787.99;;;26.43;25.15
49529;BME280;35423;37.320;-121.762;2023-09-07T09:08:52;99792.08;;;26.61;25.20
49529;BME280;35423;37.320;-121.762;2023-09-07T09:11:20;99789.34;;;26.54;25.25
49529;BME280;35423;37.320;-121.762;2023-09-07T09:13:50;99789.53;;;26.82;25.11
49529;BME280;35423;37.320;-121.762;2023-09-07T09:16:21;99785.00;;;26.72;25.30
49529;BME280;35423;37.320;-121.762;2023-09-07T09:18:53;99783.18;;;26.66;25.37
49529;BME280;35423;37.320;-121.762;2023-09-07T09:21:15;99781.01;;;26.61;25.40
49529;BME280;35423;37.320;-121.762;2023-09-07T09:23:44;99781.53;;;26.16;25.53
49529;BME280;35423;37.320;-121.762;2023-09-07T09:26:25;99782.61;;;26.49;25.59
49529;BME280;35423;37.320;-121.762;2023-09-07T09:28:51;99781.59;;;26.45;25.56
49529;BME280;35423;37.320;-121.762;2023-09-07T09:31:21;99780.83;;;26.30;25.65
49529;BME280;35423;37.320;-121.762;2023-09-07T09:33:59;99780.33;;;26.27;25.79
49529;BME280;35423;37.320;-121.762;2023-09-07T09:36:36;99781.15;;;26.14;25.86
49529;BME280;35423;37.320;-121.762;2023-09-07T09:38:53;99777.41;;;26.11;25.91
49529;BME280;35423;37.320;-121.762;2023-09-07T09:41:20;99777.63;;;25.76;25.95
49529;BME280;35423;37.320;-121.762;2023-09-07T09:44:07;99773.28;;;26.29;25.87
49529;BME280;35423;37.320;-121.762;2023-09-07T09:46:31;99773.36;;;26.15;25.96
49529;BME280;35423;37.320;-121.762;2023-09-07T09:48:56;99772.56;;;25.89;26.00
49529;BME280;35423;37.320;-121.762;2023-09-07T09:51:21;99773.69;;;26.00;26.07
49529;BME280;35423;37.320;-121.762;2023-09-07T09:53:48;99775.51;;;25.86;26.00
49529;BME280;35423;37.320;-121.762;2023-09-07T09:56:13;99778.11;;;25.75;26.08
49529;BME280;35423;37.320;-121.762;2023-09-07T09:58:44;99777.68;;;25.76;26.07
49529;BME280;35423;37.320;-121.762;2023-09-07T10:01:14;99780.54;;;26.07;26.21
49529;BME280;35423;37.320;-121.762;2023-09-07T10:03:47;99778.16;;;26.05;26.27
49529;BME280;35423;37.320;-121.762;2023-09-07T10:06:24;99779.05;;;25.48;26.38
49529;BME280;35423;37.320;-121.762;2023-09-07T10:08:58;99781.07;;;25.80;26.51
49529;BME280;35423;37.320;-121.762;2023-09-07T10:14:02;99779.82;;;25.60;26.75
49529;BME280;35423;37.320;-121.762;2023-09-07T10:16:24;99777.64;;;25.10;26.79
49529;BME280;35423;37.320;-121.762;2023-09-07T10:18:53;99776.24;;;25.54;26.91
49529;BME280;35423;37.320;-121.762;2023-09-07T10:21:24;99775.91;;;25.46;26.89
49529;BME280;35423;37.320;-121.762;2023-09-07T10:23:55;99776.02;;;25.41;27.03
49529;BME280;35423;37.320;-121.762;2023-09-07T10:26:18;99775.91;;;24.89;27.00
49529;BME280;35423;37.320;-121.762;2023-09-07T10:29:05;99773.96;;;25.37;26.98
49529;BME280;35423;37.320;-121.762;2023-09-07T10:31:30;99779.22;;;25.27;27.05
49529;BME280;35423;37.320;-121.762;2023-09-07T10:33:56;99776.87;;;25.24;27.04
49529;BME280;35423;37.320;-121.762;2023-09-07T10:36:27;99779.09;;;24.93;27.12
49529;BME280;35423;37.320;-121.762;2023-09-07T10:38:56;99776.21;;;25.15;27.17
49529;BME280;35423;37.320;-121.762;2023-09-07T10:41:22;99774.88;;;24.86;27.22
49529;BME280;35423;37.320;-121.762;2023-09-07T10:43:53;99772.92;;;25.03;27.30
49529;BME280;35423;37.320;-121.762;2023-09-07T10:46:15;99771.21;;;25.22;27.41
49529;BME280;35423;37.320;-121.762;2023-09-07T10:48:43;99768.80;;;24.87;27.44
49529;BME280;35423;37.320;-121.762;2023-09-07T10:51:20;99769.24;;;24.82;27.45
49529;BME280;35423;37.320;-121.762;2023-09-07T10:53:52;99768.27;;;25.15;27.39
49529;BME280;35423;37.320;-121.762;2023-09-07T10:56:20;99768.54;;;24.80;27.48
49529;BME280;35423;37.320;-121.762;2023-09-07T10:58:49;99771.39;;;25.24;27.52
49529;BME280;35423;37.320;-121.762;2023-09-07T11:01:17;99772.33;;;25.12;27.69
49529;BME280;35423;37.320;-121.762;2023-09-07T11:03:45;99770.26;;;24.71;27.62
49529;BME280;35423;37.320;-121.762;2023-09-07T11:06:13;99770.27;;;24.90;27.70
49529;BME280;35423;37.320;-121.762;2023-09-07T11:08:46;99769.36;;;25.03;27.80
49529;BME280;35423;37.320;-121.762;2023-09-07T11:11:14;99768.16;;;24.44;27.90
49529;BME280;35423;37.320;-121.762;2023-09-07T11:13:44;99768.77;;;24.84;28.00
49529;BME280;35423;37.320;-121.762;2023-09-07T11:16:13;99768.91;;;24.77;28.09
49529;BME280;35423;37.320;-121.762;2023-09-07T11:18:53;99768.86;;;24.68;28.16
49529;BME280;35423;37.320;-121.762;2023-09-07T11:21:19;99767.14;;;24.11;28.20
49529;BME280;35423;37.320;-121.762;2023-09-07T11:23:46;99769.73;;;24.33;28.27
49529;BME280;35423;37.320;-121.762;2023-09-07T11:26:13;99766.22;;;24.45;28.36
49529;BME280;35423;37.320;-121.762;2023-09-07T11:28:37;99769.50;;;24.51;28.31
49529;BME280;35423;37.320;-121.762;2023-09-07T11:31:04;99772.62;;;24.48;28.31
49529;BME280;35423;37.320;-121.762;2023-09-07T11:33:35;99775.80;;;24.49;28.28
49529;BME280;35423;37.320;-121.762;2023-09-07T11:36:00;99775.98;;;24.18;28.36
49529;BME280;35423;37.320;-121.762;2023-09-07T11:38:37;99780.50;;;24.17;28.42
49529;BME280;35423;37.320;-121.762;2023-09-07T11:40:53;99782.40;;;24.30;28.61
49529;BME280;35423;37.320;-121.762;2023-09-07T11:43:20;99780.89;;;24.26;28.64
49529;BME280;35423;37.320;-121.762;2023-09-07T11:45:45;99783.67;;;24.18;28.69
49529;BME280;35423;37.320;-121.762;2023-09-07T11:48:13;99782.89;;;24.18;28.69
49529;BME280;35423;37.320;-121.762;2023-09-07T11:50:44;99782.26;;;24.42;28.70
49529;BME280;35423;37.320;-121.762;2023-09-07T11:53:12;99782.31;;;24.23;28.60
49529;BME280;35423;37.320;-121.762;2023-09-07T11:55:39;99783.80;;;24.27;28.58
49529;BME280;35423;37.320;-121.762;2023-09-07T11:58:08;99779.36;;;23.93;28.46
49529;BME280;35423;37.320;-121.762;2023-09-07T12:00:34;99782.88;;;24.33;28.36
49529;BME280;35423;37.320;-121.762;2023-09-07T12:03:02;99786.46;;;24.27;28.16
49529;BME280;35423;37.320;-121.762;2023-09-07T12:05:29;99787.34;;;24.30;28.10
49529;BME280;35423;37.320;-121.762;2023-09-07T12:07:59;99785.51;;;24.75;28.14
49529;BME280;35423;37.320;-121.762;2023-09-07T12:10:26;99785.09;;;24.58;28.30
49529;BME280;35423;37.320;-121.762;2023-09-07T12:12:53;99782.68;;;24.33;28.39
49529;BME280;35423;37.320;-121.762;2023-09-07T12:15:21;99778.98;;;24.02;28.47
49529;BME280;35423;37.320;-121.762;2023-09-07T12:17:56;99776.29;;;24.44;28.55
49529;BME280;35423;37.320;-121.762;2023-09-07T12:20:22;99776.42;;;24.16;28.65
49529;BME280;35423;37.320;-121.762;2023-09-07T12:22:47;99777.65;;;24.30;28.79
49529;BME280;35423;37.320;-121.762;2023-09-07T12:25:13;99779.30;;;24.30;28.78
49529;BME280;35423;37.320;-121.762;2023-09-07T12:27:54;99780.53;;;24.30;28.81
49529;BME280;35423;37.320;-121.762;2023-09-07T12:30:23;99781.60;;;24.28;28.87
49529;BME280;35423;37.320;-121.762;2023-09-07T12:32:48;99783.91;;;24.10;28.92
49529;BME280;35423;37.320;-121.762;2023-09-07T12:35:20;99781.94;;;24.34;28.90
49529;BME280;35423;37.320;-121.762;2023-09-07T12:37:54;99783.92;;;24.27;29.01
49529;BME280;35423;37.320;-121.762;2023-09-07T12:40:21;99786.26;;;24.23;29.09
49529;BME280;35423;37.320;-121.762;2023-09-07T12:42:49;99786.86;;;23.89;29.01